Time;durP1;ratioP1;P1;durP2;ratioP2;P2;SDS_P1;SDS_P2;PMS_P1;PMS_P2;Temp;Humidity;BMP_temperature;BMP_pressure;BME280_temperature;BME280_humidity;BME280_pressure;Samples;Min_cycle;Max_cycle;Signal;HPM_P1;HPM_P2
2021/10/06 00:01:41;;;;;;;10.13;9.23;;;13.00;99.90;;;;;;4987579;28;20645;-63
2021/10/06 00:04:09;;;;;;;10.50;9.60;;;13.00;99.90;;;;;;4991361;28;20246;-61
2021/10/06 00:06:37;;;;;;;10.23;9.23;;;12.90;99.90;;;;;;4994153;28;20232;-62
2021/10/06 00:09:06;;;;;;;12.17;9.70;;;12.90;99.90;;;;;;4998640;28;20290;-62
2021/10/06 00:11:35;;;;;;;10.40;9.50;;;12.90;99.90;;;;;;4990576;28;20758;-63
2021/10/06 00:14:03;;;;;;;11.07;9.97;;;12.90;99.90;;;;;;4989404;28;20233;-63
2021/10/06 00:16:32;;;;;;;10.47;9.43;;;12.90;99.90;;;;;;4993044;28;20249;-61
2021/10/06 00:19:00;;;;;;;11.37;10.27;;;12.90;99.90;;;;;;4993111;28;20260;-63
2021/10/06 00:21:28;;;;;;;12.43;9.87;;;12.90;99.90;;;;;;4982910;28;20319;-62
2021/10/06 00:23:56;;;;;;;12.63;10.97;;;12.90;99.90;;;;;;4994533;28;20719;-62
2021/10/06 00:26:26;;;;;;;13.57;10.67;;;12.90;99.90;;;;;;4992396;28;20234;-63
2021/10/06 00:28:54;;;;;;;11.40;10.30;;;12.90;99.90;;;;;;4974083;28;20299;-63
2021/10/06 00:31:22;;;;;;;13.00;10.30;;;12.80;99.90;;;;;;4998724;28;20241;-62
2021/10/06 00:33:50;;;;;;;10.73;9.70;;;12.90;99.90;;;;;;4993349;28;20233;-62
2021/10/06 00:36:19;;;;;;;11.17;10.10;;;12.80;99.90;;;;;;4998329;28;20275;-63
2021/10/06 00:38:47;;;;;;;10.93;9.93;;;12.80;99.90;;;;;;4991421;28;20233;-62
2021/10/06 00:41:15;;;;;;;11.23;10.00;;;12.80;99.90;;;;;;4991276;28;20245;-62
2021/10/06 00:43:44;;;;;;;13.33;10.30;;;12.80;99.90;;;;;;4997117;28;20232;-61
2021/10/06 00:46:15;;;;;;;10.67;9.57;;;12.80;99.90;;;;;;4994431;28;20287;-63
2021/10/06 00:48:43;;;;;;;13.77;10.53;;;12.80;99.90;;;;;;4993266;28;20723;-63
2021/10/06 00:51:13;;;;;;;10.60;9.60;;;12.80;99.90;;;;;;4994286;28;20347;-62
2021/10/06 00:53:41;;;;;;;11.67;10.10;;;12.70;99.90;;;;;;4984792;28;20244;-63
2021/10/06 00:56:09;;;;;;;10.43;9.50;;;12.70;99.90;;;;;;4994694;28;20677;-61
2021/10/06 00:58:38;;;;;;;11.77;10.10;;;12.70;99.90;;;;;;4999549;28;20355;-62
2021/10/06 01:01:07;;;;;;;11.50;10.40;;;12.70;99.90;;;;;;4990985;28;20271;-61
2021/10/06 01:03:37;;;;;;;11.33;9.93;;;12.70;99.90;;;;;;4989220;28;20241;-63
2021/10/06 01:06:05;;;;;;;10.90;9.80;;;12.70;99.90;;;;;;4990762;28;20258;-62
2021/10/06 01:08:35;;;;;;;11.47;10.33;;;12.70;99.90;;;;;;4991543;28;20764;-62
2021/10/06 01:11:04;;;;;;;12.03;10.40;;;12.60;99.90;;;;;;4998796;28;20300;-63
2021/10/06 01:13:32;;;;;;;11.17;9.97;;;12.60;99.90;;;;;;4991434;28;20241;-62
2021/10/06 01:16:00;;;;;;;11.40;10.20;;;12.60;99.90;;;;;;4991315;28;20700;-63
2021/10/06 01:18:30;;;;;;;12.07;10.07;;;12.60;99.90;;;;;;4986813;28;20244;-62
2021/10/06 01:20:58;;;;;;;12.20;10.43;;;12.60;99.90;;;;;;4998001;28;20693;-63
2021/10/06 01:23:28;;;;;;;11.20;10.20;;;12.60;99.90;;;;;;4993642;28;20240;-62
2021/10/06 01:25:56;;;;;;;11.10;10.00;;;12.60;99.90;;;;;;4998450;28;20240;-61
2021/10/06 01:28:24;;;;;;;11.50;10.40;;;12.60;99.90;;;;;;4994210;28;20237;-62
2021/10/06 01:30:52;;;;;;;12.63;10.43;;;12.60;99.90;;;;;;4992418;28;20725;-62
2021/10/06 01:33:20;;;;;;;11.93;10.27;;;12.50;99.90;;;;;;4993862;28;20742;-63
2021/10/06 01:35:48;;;;;;;11.30;10.20;;;12.50;99.90;;;;;;4994648;28;20577;-62
2021/10/06 01:38:17;;;;;;;13.50;10.00;;;12.50;99.90;;;;;;4999178;28;20723;-61
2021/10/06 01:40:47;;;;;;;12.90;10.20;;;12.50;99.90;;;;;;4990015;28;20249;-62
2021/10/06 01:43:15;;;;;;;11.17;9.97;;;12.60;99.90;;;;;;5000486;28;20244;-62
2021/10/06 01:45:43;;;;;;;12.07;9.93;;;12.60;99.90;;;;;;4998578;28;20702;-62
2021/10/06 01:48:13;;;;;;;10.60;9.60;;;12.60;99.90;;;;;;4990589;28;20354;-62
2021/10/06 01:50:43;;;;;;;12.53;10.57;;;12.60;99.90;;;;;;4994211;28;20255;-61
2021/10/06 01:53:13;;;;;;;10.97;9.37;;;12.60;99.90;;;;;;4989679;28;20728;-62
2021/10/06 01:55:43;;;;;;;12.77;9.93;;;12.60;99.90;;;;;;4991564;28;20240;-62
2021/10/06 01:58:14;;;;;;;11.67;9.70;;;12.60;99.90;;;;;;4998550;28;20611;-62
2021/10/06 02:00:45;;;;;;;11.73;9.43;;;12.70;99.90;;;;;;4988738;28;20579;-63
2021/10/06 02:03:14;;;;;;;10.80;9.47;;;12.70;99.90;;;;;;4991018;28;20237;-61
2021/10/06 02:05:42;;;;;;;10.63;9.60;;;12.70;99.90;;;;;;4990868;28;20257;-61
2021/10/06 02:08:14;;;;;;;11.37;8.70;;;12.80;99.90;;;;;;4995248;28;20482;-63
2021/10/06 02:10:43;;;;;;;12.33;9.47;;;12.80;99.90;;;;;;4990597;28;20712;-61
2021/10/06 02:13:13;;;;;;;12.17;9.20;;;12.80;99.90;;;;;;4991476;28;20272;-62
2021/10/06 02:15:42;;;;;;;11.80;9.47;;;12.70;99.90;;;;;;4991937;28;20335;-61
2021/10/06 02:18:10;;;;;;;12.40;9.83;;;12.70;99.90;;;;;;4988912;28;20597;-62
2021/10/06 02:20:38;;;;;;;10.47;9.37;;;12.70;99.90;;;;;;4999170;28;20264;-61
2021/10/06 02:23:06;;;;;;;11.93;9.60;;;12.70;99.90;;;;;;4998246;28;20268;-62
2021/10/06 02:25:35;;;;;;;10.50;9.37;;;12.70;99.90;;;;;;4990183;28;20236;-64
2021/10/06 02:28:03;;;;;;;11.93;10.23;;;12.70;99.90;;;;;;4998357;28;20294;-63
2021/10/06 02:30:33;;;;;;;11.67;9.43;;;12.70;99.90;;;;;;4992789;28;20233;-64
2021/10/06 02:33:01;;;;;;;11.00;9.67;;;12.70;99.90;;;;;;4991604;28;20644;-62
2021/10/06 02:35:29;;;;;;;15.70;9.97;;;12.60;99.90;;;;;;5003421;28;20237;-62
2021/10/06 02:37:58;;;;;;;10.73;9.63;;;12.60;99.90;;;;;;4992349;28;20292;-63
2021/10/06 02:40:26;;;;;;;10.33;9.13;;;12.60;99.90;;;;;;4990494;28;20241;-62
2021/10/06 02:42:54;;;;;;;12.77;9.87;;;12.60;99.90;;;;;;4984184;28;20292;-62
2021/10/06 02:45:23;;;;;;;11.10;9.90;;;12.60;99.90;;;;;;4991906;28;20252;-62
2021/10/06 02:47:53;;;;;;;11.57;9.87;;;12.60;99.90;;;;;;4991919;28;20335;-62
2021/10/06 02:50:24;;;;;;;12.57;9.80;;;12.70;99.90;;;;;;4992872;28;20251;-63
2021/10/06 02:52:52;;;;;;;10.83;9.70;;;12.60;99.90;;;;;;4992955;28;20339;-62
2021/10/06 02:55:21;;;;;;;11.33;9.70;;;12.60;99.90;;;;;;4995864;28;20240;-61
2021/10/06 02:57:49;;;;;;;18.93;10.10;;;12.50;99.90;;;;;;4993169;28;20329;-62
2021/10/06 03:00:18;;;;;;;10.67;9.67;;;12.50;99.90;;;;;;4994252;28;20408;-62
2021/10/06 03:02:46;;;;;;;13.33;10.07;;;12.40;99.90;;;;;;4987835;28;20743;-63
2021/10/06 03:05:16;;;;;;;11.93;10.40;;;12.40;99.90;;;;;;4986340;28;20256;-61
2021/10/06 03:07:44;;;;;;;13.67;10.17;;;12.40;99.90;;;;;;4989514;28;20264;-62
2021/10/06 03:10:13;;;;;;;12.23;9.93;;;12.30;99.90;;;;;;4987620;28;20247;-62
2021/10/06 03:12:41;;;;;;;13.53;10.80;;;12.30;99.90;;;;;;4990459;28;20240;-63
2021/10/06 03:15:11;;;;;;;13.53;10.17;;;12.30;99.90;;;;;;4998575;28;20315;-62
2021/10/06 03:17:39;;;;;;;13.70;9.80;;;12.20;99.90;;;;;;4983223;28;20248;-62
2021/10/06 03:20:09;;;;;;;16.57;10.77;;;12.20;99.90;;;;;;4991543;28;20241;-63
2021/10/06 03:22:39;;;;;;;14.30;10.07;;;12.20;99.90;;;;;;4983009;28;20315;-62
2021/10/06 03:25:08;;;;;;;12.73;10.27;;;12.20;99.90;;;;;;4997082;28;20251;-62
2021/10/06 03:27:36;;;;;;;11.17;10.00;;;12.10;99.90;;;;;;4994197;28;20245;-63
2021/10/06 03:30:07;;;;;;;14.87;10.27;;;12.10;99.90;;;;;;4996033;28;20653;-63
2021/10/06 03:32:36;;;;;;;14.13;10.97;;;12.10;99.90;;;;;;4987872;28;20536;-62
2021/10/06 03:35:05;;;;;;;14.03;9.83;;;12.10;99.90;;;;;;4994937;28;20326;-63
2021/10/06 03:37:34;;;;;;;13.93;10.37;;;12.10;99.90;;;;;;4980256;28;20278;-63
2021/10/06 03:40:04;;;;;;;12.77;9.73;;;12.00;99.90;;;;;;4990592;28;20263;-62
2021/10/06 03:42:32;;;;;;;14.40;10.60;;;12.00;99.90;;;;;;4983558;28;20306;-62
2021/10/06 03:45:01;;;;;;;11.30;10.10;;;12.00;99.90;;;;;;4997331;28;20243;-62
2021/10/06 03:47:30;;;;;;;14.57;10.03;;;12.00;99.90;;;;;;4985778;28;20316;-61
2021/10/06 03:49:58;;;;;;;11.87;9.83;;;11.90;99.90;;;;;;4996069;28;20236;-62
2021/10/06 03:52:26;;;;;;;14.50;10.23;;;11.90;99.90;;;;;;4985759;28;20245;-63
2021/10/06 03:54:54;;;;;;;11.47;9.43;;;11.90;99.90;;;;;;4992037;28;20252;-63
2021/10/06 03:57:24;;;;;;;18.70;10.50;;;11.90;99.90;;;;;;4993445;28;20251;-62
2021/10/06 03:59:52;;;;;;;12.43;10.10;;;11.90;99.90;;;;;;4989935;28;20276;-63
2021/10/06 04:02:20;;;;;;;11.73;10.40;;;11.80;99.90;;;;;;4989948;28;20233;-62
2021/10/06 04:04:48;;;;;;;15.73;10.07;;;11.80;99.90;;;;;;5000129;28;20230;-63
2021/10/06 04:07:16;;;;;;;11.50;10.30;;;11.80;99.90;;;;;;4992705;28;20251;-62
2021/10/06 04:09:45;;;;;;;12.97;9.93;;;11.80;99.90;;;;;;4990918;28;20243;-62
2021/10/06 04:12:13;;;;;;;12.13;9.93;;;11.80;99.90;;;;;;4996759;28;20239;-62
2021/10/06 04:14:42;;;;;;;11.63;10.00;;;11.80;99.90;;;;;;4998022;28;20259;-62
2021/10/06 04:17:10;;;;;;;13.10;9.93;;;11.70;99.90;;;;;;4988607;28;20236;-63
2021/10/06 04:19:39;;;;;;;11.90;9.70;;;11.70;99.90;;;;;;4987123;28;20781;-61
2021/10/06 04:22:07;;;;;;;12.93;10.13;;;11.70;99.90;;;;;;4995405;28;20249;-62
2021/10/06 04:24:35;;;;;;;13.17;9.73;;;11.70;99.90;;;;;;4997904;28;20295;-63
2021/10/06 04:27:03;;;;;;;12.87;9.37;;;11.70;99.90;;;;;;5003059;28;20258;-62
2021/10/06 04:29:32;;;;;;;11.70;9.37;;;11.70;99.90;;;;;;4995188;28;20742;-62
2021/10/06 04:32:01;;;;;;;10.73;9.37;;;11.70;99.90;;;;;;4999671;28;20252;-62
2021/10/06 04:34:30;;;;;;;13.53;10.17;;;11.70;99.90;;;;;;4996422;28;20299;-62
2021/10/06 04:36:58;;;;;;;15.07;10.10;;;11.70;99.90;;;;;;4992637;28;20240;-62
2021/10/06 04:39:26;;;;;;;14.53;10.43;;;11.80;99.90;;;;;;4989736;28;20783;-63
2021/10/06 04:41:55;;;;;;;11.90;10.23;;;11.70;99.90;;;;;;4984296;28;20606;-63
2021/10/06 04:44:23;;;;;;;11.23;10.07;;;11.70;99.90;;;;;;4993627;28;20324;-63
2021/10/06 04:46:51;;;;;;;11.60;10.23;;;11.70;99.90;;;;;;4996837;28;20240;-63
2021/10/06 04:49:21;;;;;;;11.37;10.00;;;11.70;99.90;;;;;;4987285;28;20336;-61
2021/10/06 04:51:49;;;;;;;13.50;10.97;;;11.70;99.90;;;;;;4982046;28;20270;-62
2021/10/06 04:54:17;;;;;;;13.63;9.73;;;11.70;99.90;;;;;;4986020;28;20775;-63
2021/10/06 04:56:46;;;;;;;12.77;10.10;;;11.70;99.90;;;;;;4982170;28;21843;-62
2021/10/06 04:59:14;;;;;;;13.20;10.33;;;11.70;99.90;;;;;;4987589;28;20239;-62
2021/10/06 05:01:42;;;;;;;14.87;10.53;;;11.70;99.90;;;;;;4980839;28;20331;-62
2021/10/06 05:04:10;;;;;;;13.57;10.07;;;11.70;99.90;;;;;;4991629;28;20268;-62
2021/10/06 05:06:39;;;;;;;12.87;10.40;;;11.70;99.90;;;;;;4987435;28;20233;-62
2021/10/06 05:09:08;;;;;;;15.17;10.73;;;11.70;99.90;;;;;;4997816;28;20322;-61
2021/10/06 05:11:36;;;;;;;14.40;10.97;;;11.70;99.90;;;;;;4989015;28;20234;-63
2021/10/06 05:14:04;;;;;;;14.20;10.73;;;11.70;99.90;;;;;;4996531;28;20318;-63
2021/10/06 05:16:32;;;;;;;17.23;11.77;;;11.70;99.90;;;;;;4991192;28;20295;-62
2021/10/06 05:19:00;;;;;;;13.17;11.17;;;11.70;99.90;;;;;;4991068;28;20238;-62
2021/10/06 05:21:30;;;;;;;17.20;11.23;;;11.70;99.90;;;;;;4982149;28;20700;-61
2021/10/06 05:23:59;;;;;;;12.83;10.47;;;11.70;99.90;;;;;;4989645;28;20236;-63
2021/10/06 05:26:27;;;;;;;15.33;11.20;;;11.70;99.90;;;;;;4989301;28;20242;-62
2021/10/06 05:28:55;;;;;;;14.20;10.67;;;11.70;99.90;;;;;;4990926;28;21034;-62
2021/10/06 05:31:23;;;;;;;13.90;11.50;;;11.70;99.90;;;;;;4989468;28;20644;-62
2021/10/06 05:33:51;;;;;;;15.20;11.50;;;11.60;99.90;;;;;;4994611;28;20241;-62
2021/10/06 05:36:19;;;;;;;13.93;12.43;;;11.60;99.90;;;;;;4992974;28;20256;-61
2021/10/06 05:38:48;;;;;;;14.67;11.80;;;11.60;99.90;;;;;;4990034;28;20747;-62
2021/10/06 05:41:17;;;;;;;13.00;11.20;;;11.60;99.90;;;;;;4989575;28;20248;-63
2021/10/06 05:43:45;;;;;;;13.27;11.67;;;11.60;99.90;;;;;;4983104;28;21142;-62
2021/10/06 05:46:13;;;;;;;15.20;11.07;;;11.70;99.90;;;;;;4978417;28;20286;-63
2021/10/06 05:48:41;;;;;;;14.73;11.47;;;11.70;99.90;;;;;;4984572;28;20241;-62
2021/10/06 05:51:09;;;;;;;12.93;11.63;;;11.70;99.90;;;;;;4985623;28;20334;-63
2021/10/06 05:53:38;;;;;;;13.67;11.40;;;11.60;99.90;;;;;;4986437;28;20820;-63
2021/10/06 05:56:06;;;;;;;12.60;11.37;;;11.60;99.90;;;;;;4986726;28;20285;-62
2021/10/06 05:58:35;;;;;;;13.40;11.43;;;11.60;99.90;;;;;;4985649;28;20669;-63
2021/10/06 06:01:03;;;;;;;14.40;11.67;;;11.60;99.90;;;;;;4983906;28;20251;-62
2021/10/06 06:03:32;;;;;;;13.70;12.30;;;11.60;99.90;;;;;;4982936;28;20244;-63
2021/10/06 06:06:00;;;;;;;14.03;12.33;;;11.60;99.90;;;;;;4984378;28;20334;-63
2021/10/06 06:08:28;;;;;;;15.23;12.17;;;11.60;99.90;;;;;;4985062;28;20256;-63
2021/10/06 06:10:56;;;;;;;12.70;11.60;;;11.60;99.90;;;;;;4981968;28;20332;-62
2021/10/06 06:13:24;;;;;;;15.03;11.33;;;11.60;99.90;;;;;;4983958;28;20243;-63
2021/10/06 06:15:54;;;;;;;12.10;10.83;;;11.70;99.90;;;;;;4985178;28;20291;-63
2021/10/06 06:18:22;;;;;;;14.17;11.83;;;11.60;99.90;;;;;;4982900;28;20252;-63
2021/10/06 06:20:50;;;;;;;12.73;11.17;;;11.70;99.90;;;;;;4982617;28;20656;-62
2021/10/06 06:23:18;;;;;;;13.47;11.07;;;11.80;99.90;;;;;;4983623;28;20251;-63
2021/10/06 06:25:46;;;;;;;12.33;11.00;;;11.80;99.90;;;;;;4982294;28;20708;-62
2021/10/06 06:28:14;;;;;;;12.13;10.83;;;11.80;99.90;;;;;;4983621;28;20246;-63
2021/10/06 06:30:43;;;;;;;11.57;10.40;;;11.80;99.90;;;;;;4981345;28;20847;-63
2021/10/06 06:33:12;;;;;;;12.10;10.90;;;11.90;99.90;;;;;;4976709;28;20654;-63
2021/10/06 06:35:40;;;;;;;11.90;10.70;;;11.90;99.90;;;;;;4981054;28;20324;-64
2021/10/06 06:38:08;;;;;;;12.70;10.97;;;12.00;99.90;;;;;;4990499;28;20245;-63
2021/10/06 06:40:40;;;;;;;12.07;10.70;;;12.20;99.90;;;;;;4982680;28;20353;-62
2021/10/06 06:43:09;;;;;;;11.33;10.23;;;12.30;99.90;;;;;;4983287;28;20276;-62
2021/10/06 06:45:37;;;;;;;10.60;9.50;;;12.40;99.90;;;;;;4984236;28;20241;-62
2021/10/06 06:48:07;;;;;;;11.90;10.00;;;12.50;99.90;;;;;;4987192;28;20247;-62
2021/10/06 06:50:50;;;;;;;11.97;9.93;;;12.60;99.90;;;;;;4992289;28;20353;-63
2021/10/06 06:53:19;;;;;;;10.10;8.77;;;12.60;99.90;;;;;;4985181;28;20254;-63
2021/10/06 06:55:47;;;;;;;11.10;8.50;;;12.70;99.90;;;;;;4990383;28;20697;-62
2021/10/06 06:58:15;;;;;;;11.37;9.10;;;12.80;99.90;;;;;;4993057;28;20330;-63
2021/10/06 07:00:43;;;;;;;10.90;8.17;;;12.80;99.90;;;;;;4987550;28;20252;-62
2021/10/06 07:03:12;;;;;;;10.83;8.03;;;12.90;99.90;;;;;;4980338;28;20797;-62
2021/10/06 07:05:40;;;;;;;8.80;7.80;;;13.00;99.90;;;;;;4977099;28;20248;-63
2021/10/06 07:08:09;;;;;;;9.90;7.73;;;13.10;99.90;;;;;;4992823;28;20243;-62
2021/10/06 07:10:38;;;;;;;8.83;7.77;;;13.20;99.90;;;;;;4983023;28;20267;-63
2021/10/06 07:13:26;;;;;;;10.07;6.87;;;13.20;99.90;;;;;;4980182;28;20249;-62
2021/10/06 07:15:54;;;;;;;10.53;7.10;;;13.40;99.90;;;;;;4980837;28;20329;-62
2021/10/06 07:18:22;;;;;;;10.67;7.47;;;13.50;99.90;;;;;;4967755;28;20244;-62
2021/10/06 07:20:50;;;;;;;8.33;7.10;;;13.60;99.90;;;;;;4991540;28;20245;-63
2021/10/06 07:23:19;;;;;;;11.13;6.87;;;13.60;99.90;;;;;;4989807;28;20272;-62
2021/10/06 07:25:48;;;;;;;12.43;7.03;;;13.80;99.90;;;;;;4982119;28;20724;-63
2021/10/06 07:28:16;;;;;;;10.43;6.87;;;13.80;99.90;;;;;;4982248;28;20275;-61
2021/10/06 07:30:44;;;;;;;9.53;6.70;;;13.90;99.90;;;;;;4986782;28;20237;-62
2021/10/06 07:33:12;;;;;;;9.23;6.17;;;14.00;99.90;;;;;;4993248;28;20661;-62
2021/10/06 07:35:40;;;;;;;8.73;5.67;;;14.10;99.90;;;;;;4989050;28;20249;-62
2021/10/06 07:38:10;;;;;;;8.37;5.50;;;14.10;99.90;;;;;;4992414;28;20264;-63
2021/10/06 07:40:39;;;;;;;7.90;5.40;;;14.20;99.90;;;;;;4998797;28;20236;-63
2021/10/06 07:43:08;;;;;;;6.30;5.07;;;14.30;99.90;;;;;;4999423;28;20272;-62
2021/10/06 07:45:38;;;;;;;6.47;4.73;;;14.40;99.90;;;;;;5000032;28;20287;-63
2021/10/06 07:48:07;;;;;;;7.73;5.33;;;14.40;99.90;;;;;;4991321;28;20306;-61
2021/10/06 07:50:35;;;;;;;8.50;4.70;;;14.50;99.90;;;;;;4993404;28;20240;-65
2021/10/06 07:53:03;;;;;;;6.37;4.77;;;14.50;99.90;;;;;;4996594;28;20244;-62
2021/10/06 07:55:32;;;;;;;9.30;4.80;;;14.60;99.90;;;;;;4993574;28;20644;-62
2021/10/06 07:58:01;;;;;;;10.07;4.67;;;14.80;99.90;;;;;;4996235;28;20236;-63
2021/10/06 08:00:30;;;;;;;10.50;4.63;;;14.90;99.90;;;;;;5004336;28;20240;-63
2021/10/06 08:03:00;;;;;;;5.97;4.53;;;14.80;99.90;;;;;;4995931;28;20243;-62
2021/10/06 08:05:29;;;;;;;7.97;4.30;;;14.70;99.90;;;;;;4989784;28;20784;-62
2021/10/06 08:07:57;;;;;;;6.80;4.20;;;14.80;99.90;;;;;;4991444;28;20245;-63
2021/10/06 08:10:25;;;;;;;7.50;4.23;;;14.90;99.90;;;;;;4996394;28;20249;-62
2021/10/06 08:12:53;;;;;;;6.33;4.00;;;14.90;99.90;;;;;;4994198;28;20229;-63
2021/10/06 08:15:23;;;;;;;7.67;4.20;;;15.10;99.90;;;;;;4991485;28;20799;-63
2021/10/06 08:17:52;;;;;;;9.00;3.83;;;15.10;99.90;;;;;;4999174;28;20265;-62
2021/10/06 08:20:20;;;;;;;6.97;4.27;;;15.30;99.90;;;;;;4999778;28;20241;-62
2021/10/06 08:22:48;;;;;;;6.50;4.63;;;15.40;99.90;;;;;;4994390;28;20324;-62
2021/10/06 08:25:16;;;;;;;6.37;3.67;;;15.60;99.90;;;;;;4995152;28;20603;-62
2021/10/06 08:27:45;;;;;;;6.23;4.03;;;15.60;99.90;;;;;;4997828;28;21316;-63
2021/10/06 08:30:13;;;;;;;6.33;3.97;;;15.50;99.90;;;;;;5002751;28;20708;-63
2021/10/06 08:32:42;;;;;;;5.30;3.90;;;15.10;99.90;;;;;;4999099;28;20717;-63
2021/10/06 08:35:10;;;;;;;7.47;4.07;;;15.00;99.90;;;;;;4993553;28;20720;-62
2021/10/06 08:37:39;;;;;;;8.20;4.10;;;14.90;99.90;;;;;;4998393;28;20598;-62
2021/10/06 08:40:08;;;;;;;7.17;3.77;;;14.80;99.90;;;;;;4990237;28;20727;-62
2021/10/06 08:42:36;;;;;;;5.90;3.80;;;14.70;99.90;;;;;;4984611;28;20245;-63
2021/10/06 08:45:08;;;;;;;7.00;3.70;;;14.60;99.90;;;;;;4985963;28;20600;-63
2021/10/06 08:47:37;;;;;;;5.23;3.47;;;14.70;99.90;;;;;;4985061;28;20416;-62
2021/10/06 08:50:09;;;;;;;5.97;3.57;;;14.80;99.90;;;;;;4985023;28;20698;-62
2021/10/06 08:52:37;;;;;;;6.73;3.67;;;14.90;99.90;;;;;;4996650;28;20241;-63
2021/10/06 08:55:07;;;;;;;7.17;3.30;;;14.80;99.90;;;;;;4992693;28;20239;-63
2021/10/06 08:57:36;;;;;;;4.73;2.97;;;14.70;99.90;;;;;;4995421;28;20267;-62
2021/10/06 09:00:05;;;;;;;6.07;3.10;;;14.70;99.90;;;;;;4991549;28;20329;-62
2021/10/06 09:02:41;;;;;;;5.13;2.80;;;15.00;99.90;;;;;;4988070;28;20241;-62
2021/10/06 09:05:12;;;;;;;5.87;2.60;;;15.40;99.90;;;;;;4993141;28;20341;-63
2021/10/06 09:07:57;;;;;;;4.83;2.60;;;15.70;99.90;;;;;;4986581;28;20844;-62
2021/10/06 09:10:28;;;;;;;5.57;2.90;;;16.00;99.90;;;;;;4982792;28;20248;-63
2021/10/06 09:12:58;;;;;;;6.83;3.20;;;16.20;99.90;;;;;;4991285;28;20245;-63
2021/10/06 09:15:27;;;;;;;4.87;2.60;;;16.10;99.90;;;;;;4989455;28;20253;-61
2021/10/06 09:17:57;;;;;;;6.80;2.70;;;16.20;99.90;;;;;;4992673;28;20236;-62
2021/10/06 09:20:38;;;;;;;4.83;2.40;;;16.20;99.90;;;;;;4988455;28;20252;-63
2021/10/06 09:23:09;;;;;;;6.17;2.70;;;16.20;99.90;;;;;;4987804;28;20272;-62
2021/10/06 09:25:51;;;;;;;5.80;2.50;;;16.20;99.90;;;;;;4987222;28;20232;-62
2021/10/06 09:28:24;;;;;;;6.00;2.23;;;16.50;99.90;;;;;;4989139;28;20241;-62
2021/10/06 09:30:58;;;;;;;5.03;2.50;;;16.60;99.90;;;;;;4992577;28;20739;-63
2021/10/06 09:33:39;;;;;;;5.30;2.20;;;16.70;99.90;;;;;;4996670;28;20320;-64
2021/10/06 09:36:12;;;;;;;5.47;2.23;;;16.60;99.90;;;;;;4995389;28;20612;-64
2021/10/06 09:38:47;;;;;;;5.33;2.20;;;16.40;99.90;;;;;;4990730;28;20304;-62
2021/10/06 09:41:37;;;;;;;3.63;1.90;;;16.40;99.90;;;;;;4988932;28;20332;-63
2021/10/06 09:44:10;;;;;;;5.53;2.20;;;16.30;99.90;;;;;;4990343;28;20274;-64
2021/10/06 09:46:52;;;;;;;5.70;2.27;;;16.30;99.90;;;;;;4983913;28;20233;-62
2021/10/06 09:49:24;;;;;;;6.30;2.23;;;16.20;99.90;;;;;;4992947;28;20237;-63
2021/10/06 09:51:56;;;;;;;5.47;2.57;;;16.10;99.90;;;;;;4987334;28;20321;-62
2021/10/06 09:54:24;;;;;;;5.20;2.30;;;16.10;99.90;;;;;;4990369;28;20765;-63
2021/10/06 09:56:52;;;;;;;4.73;2.30;;;16.20;99.90;;;;;;4997007;28;20772;-63
2021/10/06 09:59:20;;;;;;;4.10;2.23;;;16.20;99.90;;;;;;4987497;28;20337;-62
2021/10/06 10:01:49;;;;;;;6.10;2.37;;;16.10;99.90;;;;;;4981975;28;20765;-63
2021/10/06 10:04:18;;;;;;;4.57;2.70;;;16.10;99.90;;;;;;4990855;28;20620;-62
2021/10/06 10:06:46;;;;;;;4.37;2.30;;;16.00;99.90;;;;;;4986647;28;20236;-62
2021/10/06 10:09:15;;;;;;;4.60;2.33;;;15.90;99.90;;;;;;4989785;28;20846;-63
2021/10/06 10:11:44;;;;;;;4.07;2.03;;;15.90;99.90;;;;;;4980248;28;20268;-64
2021/10/06 10:14:12;;;;;;;4.90;2.70;;;16.00;99.90;;;;;;4976789;28;20285;-62
2021/10/06 10:16:40;;;;;;;3.40;2.33;;;15.90;99.90;;;;;;4984155;28;20234;-62
2021/10/06 10:19:10;;;;;;;3.50;2.40;;;15.90;99.90;;;;;;4980120;28;20833;-62
2021/10/06 10:21:43;;;;;;;4.67;2.10;;;15.90;99.90;;;;;;4985122;28;20332;-63
2021/10/06 10:24:20;;;;;;;3.63;2.50;;;15.90;99.90;;;;;;4982606;28;20334;-62
2021/10/06 10:27:03;;;;;;;4.10;2.27;;;15.90;99.90;;;;;;4979558;28;20267;-62
2021/10/06 10:29:36;;;;;;;5.57;2.47;;;15.80;99.90;;;;;;4981966;28;20274;-63
2021/10/06 10:32:10;;;;;;;5.87;2.37;;;15.70;99.90;;;;;;4979809;28;20497;-63
2021/10/06 10:35:06;;;;;;;5.23;2.53;;;15.60;99.90;;;;;;4985883;28;20329;-63
2021/10/06 10:38:08;;;;;;;5.33;2.40;;;15.40;99.90;;;;;;4982669;28;20349;-62
2021/10/06 10:40:54;;;;;;;3.37;2.07;;;15.50;99.90;;;;;;4982560;28;20245;-62
2021/10/06 10:43:27;;;;;;;5.30;2.40;;;15.60;99.90;;;;;;4974445;28;20360;-63
2021/10/06 10:46:12;;;;;;;3.07;2.30;;;15.80;99.90;;;;;;4954022;28;20332;-64
2021/10/06 10:49:02;;;;;;;3.97;2.40;;;15.80;99.90;;;;;;4972041;28;20241;-63
2021/10/06 10:51:55;;;;;;;4.50;2.17;;;15.80;99.90;;;;;;4968932;28;20244;-63
2021/10/06 10:54:34;;;;;;;5.03;2.63;;;15.80;99.90;;;;;;4959682;28;20242;-62
2021/10/06 10:57:19;;;;;;;6.67;2.13;;;15.60;99.90;;;;;;4971880;28;20791;-63
2021/10/06 10:59:49;;;;;;;5.27;2.20;;;15.70;99.90;;;;;;4974907;28;20244;-63
2021/10/06 11:02:22;;;;;;;4.40;1.93;;;15.70;99.90;;;;;;4968234;28;20332;-63
2021/10/06 11:04:59;;;;;;;4.70;2.23;;;15.60;99.90;;;;;;4969410;28;20252;-63
2021/10/06 11:07:28;;;;;;;4.70;2.37;;;15.50;99.90;;;;;;4971850;28;20249;-64
2021/10/06 11:09:57;;;;;;;2.97;2.10;;;15.50;99.90;;;;;;4971991;28;20928;-64
2021/10/06 11:12:41;;;;;;;3.33;2.27;;;15.60;99.90;;;;;;4967222;28;20541;-62
2021/10/06 11:15:26;;;;;;;5.43;2.20;;;15.60;99.90;;;;;;4969195;28;20775;-63
2021/10/06 11:18:15;;;;;;;3.47;2.00;;;15.60;99.90;;;;;;4968730;28;20332;-64
2021/10/06 11:20:47;;;;;;;4.73;2.40;;;15.60;99.90;;;;;;4967001;28;20582;-64
2021/10/06 11:23:41;;;;;;;5.10;2.50;;;15.50;99.90;;;;;;4972001;28;20648;-64
2021/10/06 11:26:11;;;;;;;5.23;2.40;;;15.60;99.90;;;;;;4970628;28;20238;-63
2021/10/06 11:28:42;;;;;;;3.53;2.33;;;15.70;99.90;;;;;;4970845;28;20229;-63
2021/10/06 11:31:12;;;;;;;3.40;2.37;;;15.70;99.90;;;;;;4978723;28;20233;-63
2021/10/06 11:33:41;;;;;;;6.33;2.50;;;15.90;99.90;;;;;;4981278;28;20240;-62
2021/10/06 11:36:15;;;;;;;4.53;2.53;;;15.90;99.90;;;;;;4980346;28;20610;-61
2021/10/06 11:38:46;;;;;;;4.93;2.13;;;15.80;99.90;;;;;;4979016;28;20264;-63
2021/10/06 11:41:15;;;;;;;4.47;2.10;;;15.60;99.90;;;;;;4980659;28;20250;-63
2021/10/06 11:43:48;;;;;;;4.03;2.40;;;15.50;99.90;;;;;;4978333;28;20280;-63
2021/10/06 11:46:19;;;;;;;4.17;2.27;;;15.40;99.90;;;;;;4981569;28;20249;-62
2021/10/06 11:48:49;;;;;;;4.40;2.10;;;15.30;99.90;;;;;;4978441;28;20712;-66
2021/10/06 11:51:18;;;;;;;6.37;2.70;;;15.20;99.90;;;;;;4987069;28;20692;-66
2021/10/06 11:53:48;;;;;;;2.50;2.00;;;15.20;99.90;;;;;;4993734;28;20360;-67
2021/10/06 11:56:27;;;;;;;5.17;2.30;;;15.20;99.90;;;;;;4986064;28;20243;-66
2021/10/06 11:59:06;;;;;;;4.83;2.40;;;15.20;99.90;;;;;;4983524;28;20304;-66
2021/10/06 12:01:34;;;;;;;2.60;2.10;;;15.10;99.90;;;;;;4955964;28;20630;-67
2021/10/06 12:04:14;;;;;;;3.93;2.30;;;14.90;99.90;;;;;;4989303;28;20244;-66
2021/10/06 12:06:44;;;;;;;3.53;2.13;;;14.70;99.90;;;;;;4988201;28;20320;-66
2021/10/06 12:09:14;;;;;;;6.07;2.27;;;14.70;99.90;;;;;;4995970;28;20709;-66
2021/10/06 12:11:44;;;;;;;3.97;2.10;;;14.80;99.90;;;;;;4993541;28;20241;-66
2021/10/06 12:14:28;;;;;;;3.57;2.00;;;15.00;99.90;;;;;;4990473;28;20316;-66
2021/10/06 12:17:06;;;;;;;4.10;2.20;;;15.00;99.90;;;;;;4990460;28;21000;-66
2021/10/06 12:19:35;;;;;;;3.63;2.00;;;15.10;99.90;;;;;;4985962;28;20644;-66
2021/10/06 12:22:05;;;;;;;2.97;2.00;;;15.20;99.90;;;;;;4992394;28;20238;-66
2021/10/06 12:24:35;;;;;;;2.90;1.90;;;15.40;99.90;;;;;;4986086;28;20321;-66
2021/10/06 12:27:04;;;;;;;2.93;1.60;;;15.40;99.90;;;;;;4991408;28;20276;-67
2021/10/06 12:29:33;;;;;;;3.37;1.80;;;15.50;99.90;;;;;;4992667;28;20301;-66
2021/10/06 12:32:13;;;;;;;2.10;1.43;;;15.40;99.90;;;;;;4992093;28;20356;-66
2021/10/06 12:34:42;;;;;;;2.97;1.57;;;15.40;99.90;;;;;;4978320;28;20238;-66
2021/10/06 12:37:13;;;;;;;3.27;1.77;;;15.50;99.90;;;;;;4988524;28;20234;-66
2021/10/06 12:39:41;;;;;;;2.60;1.50;;;15.60;99.90;;;;;;4984666;28;20315;-66
2021/10/06 12:42:09;;;;;;;2.83;1.50;;;15.60;99.90;;;;;;4982964;28;20265;-66
2021/10/06 12:44:44;;;;;;;2.10;1.40;;;15.70;99.90;;;;;;4990495;28;20333;-67
2021/10/06 12:47:14;;;;;;;3.47;1.37;;;15.70;99.90;;;;;;4992394;28;20241;-66
2021/10/06 12:49:48;;;;;;;2.90;1.20;;;15.70;99.90;;;;;;4986571;28;20249;-66
2021/10/06 12:52:25;;;;;;;4.10;1.37;;;15.70;99.90;;;;;;4991335;28;20248;-66
2021/10/06 12:55:07;;;;;;;1.83;1.30;;;15.70;99.90;;;;;;4987267;28;20312;-66